Time;durP1;ratioP1;P1;durP2;ratioP2;P2;SDS_P1;SDS_P2;PMS_P1;PMS_P2;Temp;Humidity;BMP_temperature;BMP_pressure;BME280_temperature;BME280_humidity;BME280_pressure;Samples;Min_cycle;Max_cycle;Signal;HPM_P1;HPM_P2
2021/05/28 00:01:58;;;;;;;26.02;16.02;;;9.00;99.90;;;;;;4934787;29;20040;-67
2021/05/28 00:04:25;;;;;;;18.80;15.13;;;9.00;99.90;;;;;;4933096;29;20055;-66
2021/05/28 00:06:51;;;;;;;22.90;15.20;;;8.90;99.90;;;;;;4935143;29;20044;-67
2021/05/28 00:09:18;;;;;;;20.30;15.02;;;8.90;99.90;;;;;;4934326;29;20287;-66
2021/05/28 00:11:45;;;;;;;21.17;14.57;;;8.90;99.90;;;;;;4934601;29;20163;-66
2021/05/28 00:14:12;;;;;;;17.10;14.40;;;8.90;99.90;;;;;;4934245;29;20400;-67
2021/05/28 00:16:39;;;;;;;23.60;15.40;;;8.90;99.90;;;;;;4934259;29;20121;-67
2021/05/28 00:19:06;;;;;;;21.30;16.52;;;8.90;99.90;;;;;;4934304;29;20044;-67
2021/05/28 00:21:33;;;;;;;19.55;15.98;;;8.90;99.90;;;;;;4933210;29;20059;-67
2021/05/28 00:23:59;;;;;;;21.60;17.30;;;8.90;99.90;;;;;;4934026;29;20061;-66
2021/05/28 00:26:26;;;;;;;20.70;16.70;;;8.90;99.90;;;;;;4934468;29;20492;-67
2021/05/28 00:28:53;;;;;;;23.70;17.42;;;9.00;99.90;;;;;;4934198;29;20094;-67
2021/05/28 00:31:21;;;;;;;25.70;19.35;;;9.00;99.90;;;;;;4933174;29;20047;-67
2021/05/28 00:33:48;;;;;;;25.50;18.55;;;9.10;99.90;;;;;;4934086;29;20495;-67
2021/05/28 00:36:15;;;;;;;21.67;17.67;;;9.10;99.90;;;;;;4933916;29;20069;-67
2021/05/28 00:38:42;;;;;;;22.60;16.90;;;9.10;99.90;;;;;;4934410;29;20528;-67
2021/05/28 00:41:08;;;;;;;;;;;9.20;99.90;;;;;;4934286;29;20047;-67
2021/05/28 00:43:35;;;;;;;20.38;16.77;;;9.20;99.90;;;;;;4933613;29;19934;-67
2021/05/28 00:46:02;;;;;;;23.60;16.85;;;9.30;99.90;;;;;;4933426;29;20079;-67
2021/05/28 00:48:28;;;;;;;;;;;9.40;99.90;;;;;;4934510;29;20071;-67
2021/05/28 00:50:55;;;;;;;28.35;18.40;;;9.50;99.90;;;;;;4933949;29;19926;-67
2021/05/28 00:53:22;;;;;;;31.73;22.23;;;9.50;99.90;;;;;;4933783;29;20460;-67
2021/05/28 00:55:49;;;;;;;27.23;20.92;;;9.50;99.90;;;;;;4932363;29;20047;-67
2021/05/28 00:58:17;;;;;;;26.52;20.35;;;9.50;99.90;;;;;;4932659;29;20138;-67
2021/05/28 01:00:44;;;;;;;27.90;21.30;;;9.50;99.90;;;;;;4932276;29;20046;-67
2021/05/28 01:03:10;;;;;;;27.17;21.13;;;9.50;99.90;;;;;;4933620;29;20131;-67
2021/05/28 01:05:37;;;;;;;29.55;21.05;;;9.60;99.90;;;;;;4933654;29;20043;-67
2021/05/28 01:08:05;;;;;;;24.95;19.73;;;9.70;99.90;;;;;;4933521;29;20529;-67
2021/05/28 01:10:32;;;;;;;25.42;21.02;;;9.60;99.90;;;;;;4933016;29;20416;-67
2021/05/28 01:13:02;;;;;;;;;;;9.70;99.90;;;;;;4934245;29;20122;-67
2021/05/28 01:15:29;;;;;;;26.63;18.25;;;9.70;99.90;;;;;;4933265;29;19929;-67
2021/05/28 01:17:55;;;;;;;;;;;9.70;99.90;;;;;;4935266;29;20088;-67
2021/05/28 01:20:22;;;;;;;24.02;17.60;;;9.70;99.90;;;;;;4935676;29;20211;-67
2021/05/28 01:22:52;;;;;;;;;;;9.60;99.90;;;;;;4934395;29;20063;-67
2021/05/28 01:25:18;;;;;;;24.15;17.30;;;9.60;99.90;;;;;;4935192;29;19922;-66
2021/05/28 01:27:45;;;;;;;25.65;18.58;;;9.70;99.90;;;;;;4936405;29;20051;-67
2021/05/28 01:30:13;;;;;;;26.52;18.20;;;9.70;99.90;;;;;;4933229;29;20590;-67
2021/05/28 01:32:41;;;;;;;24.52;19.10;;;9.70;99.90;;;;;;4931951;29;20075;-67
2021/05/28 01:35:09;;;;;;;30.95;19.70;;;9.60;99.90;;;;;;4933179;29;20047;-67
2021/05/28 01:37:36;;;;;;;27.90;18.73;;;9.60;99.90;;;;;;4932787;29;20044;-66
2021/05/28 01:40:05;;;;;;;26.35;18.73;;;9.50;99.90;;;;;;4931712;29;20055;-67
2021/05/28 01:42:31;;;;;;;30.58;18.67;;;9.50;99.90;;;;;;4932864;29;20119;-67
2021/05/28 01:45:01;;;;;;;22.90;17.90;;;9.40;99.90;;;;;;4933717;29;20052;-68
2021/05/28 01:47:27;;;;;;;24.05;17.55;;;9.40;99.90;;;;;;4935653;29;20493;-67
2021/05/28 01:49:54;;;;;;;;;;;9.40;99.90;;;;;;4937983;29;20059;-67
2021/05/28 01:52:22;;;;;;;22.90;18.05;;;9.40;99.90;;;;;;4967194;28;20003;-67
2021/05/28 01:54:49;;;;;;;29.40;18.13;;;9.40;99.90;;;;;;4932639;29;20072;-67
2021/05/28 01:57:17;;;;;;;;;;;9.40;99.90;;;;;;4932536;29;20054;-67
2021/05/28 01:59:44;;;;;;;20.58;16.23;;;9.40;99.90;;;;;;4931213;29;19923;-67
2021/05/28 02:02:11;;;;;;;24.63;18.17;;;9.50;99.90;;;;;;4932666;29;20050;-66
2021/05/28 02:04:38;;;;;;;20.75;17.42;;;9.50;99.90;;;;;;4931148;29;20102;-67
2021/05/28 02:07:05;;;;;;;22.63;17.75;;;9.60;99.90;;;;;;4931112;29;20578;-67
2021/05/28 02:09:32;;;;;;;24.85;19.17;;;9.60;99.90;;;;;;4930941;29;20459;-67
2021/05/28 02:11:59;;;;;;;22.73;18.60;;;9.60;99.90;;;;;;4932684;29;20476;-67
2021/05/28 02:14:26;;;;;;;;;;;9.60;99.90;;;;;;4933012;29;20044;-67
2021/05/28 02:16:53;;;;;;;27.15;19.33;;;9.60;99.90;;;;;;4932741;29;20534;-67
2021/05/28 02:19:20;;;;;;;22.17;18.13;;;9.50;99.90;;;;;;4932299;29;20048;-67
2021/05/28 02:21:47;;;;;;;26.58;20.10;;;9.60;99.90;;;;;;4932689;29;20044;-67
2021/05/28 02:24:14;;;;;;;25.75;20.25;;;9.60;99.90;;;;;;4932788;29;20087;-67
2021/05/28 02:26:43;;;;;;;23.45;18.98;;;9.50;99.90;;;;;;4932766;29;20048;-67
2021/05/28 02:29:10;;;;;;;22.05;19.70;;;9.60;99.90;;;;;;4932547;29;20043;-67
2021/05/28 02:31:37;;;;;;;25.08;19.63;;;9.60;99.90;;;;;;4932616;29;20411;-66
2021/05/28 02:34:04;;;;;;;26.08;20.40;;;9.60;99.90;;;;;;4933082;29;20043;-67
2021/05/28 02:36:31;;;;;;;28.05;19.58;;;9.60;99.90;;;;;;4932311;29;20091;-68
2021/05/28 02:38:57;;;;;;;26.75;21.23;;;9.60;99.90;;;;;;4932120;29;20047;-67
2021/05/28 02:41:24;;;;;;;27.35;21.52;;;9.60;99.90;;;;;;4932103;29;20123;-67
2021/05/28 02:43:51;;;;;;;25.70;20.60;;;9.60;99.90;;;;;;4932048;29;20520;-68
2021/05/28 02:46:17;;;;;;;28.90;21.25;;;9.60;99.90;;;;;;4930791;29;20044;-68
2021/05/28 02:48:45;;;;;;;25.55;19.15;;;9.60;99.90;;;;;;4932117;29;20079;-68
2021/05/28 02:51:11;;;;;;;31.80;21.33;;;9.60;99.90;;;;;;4932344;29;20035;-67
2021/05/28 02:53:38;;;;;;;26.00;19.77;;;9.60;99.90;;;;;;4932022;29;20058;-67
2021/05/28 02:56:06;;;;;;;25.58;20.33;;;9.60;99.90;;;;;;4932121;29;20575;-68
2021/05/28 02:58:34;;;;;;;30.17;20.15;;;9.60;99.90;;;;;;4930736;29;20055;-67
2021/05/28 03:01:00;;;;;;;28.90;19.75;;;9.60;99.90;;;;;;4930533;29;20059;-68
2021/05/28 03:03:28;;;;;;;26.80;19.20;;;9.70;99.90;;;;;;4932163;29;20119;-67
2021/05/28 03:05:55;;;;;;;24.35;19.95;;;9.70;99.90;;;;;;4932322;29;20415;-67
2021/05/28 03:08:22;;;;;;;23.02;19.05;;;9.70;99.90;;;;;;4932328;29;20047;-67
2021/05/28 03:10:48;;;;;;;26.73;21.02;;;9.60;99.90;;;;;;4935335;29;20114;-67
2021/05/28 03:13:15;;;;;;;21.85;19.33;;;9.70;99.90;;;;;;4935694;29;20403;-67
2021/05/28 03:15:42;;;;;;;24.65;19.73;;;9.70;99.90;;;;;;4933909;29;20106;-67
2021/05/28 03:18:14;;;;;;;;;;;9.60;99.90;;;;;;4935627;29;20067;-67
2021/05/28 03:20:46;;;;;;;25.77;18.23;;;9.70;99.90;;;;;;4935506;29;19923;-67
2021/05/28 03:23:14;;;;;;;25.80;19.67;;;9.70;99.90;;;;;;4935183;29;20071;-67
2021/05/28 03:25:42;;;;;;;26.75;21.60;;;9.70;99.90;;;;;;4934950;29;20054;-67
2021/05/28 03:28:08;;;;;;;25.35;19.33;;;9.70;99.90;;;;;;4935222;29;20079;-67
2021/05/28 03:30:35;;;;;;;;;;;9.70;99.90;;;;;;4935689;29;20563;-67
2021/05/28 03:33:02;;;;;;;29.70;20.38;;;9.70;99.90;;;;;;4965999;28;20485;-67
2021/05/28 03:35:28;;;;;;;;;;;9.70;99.90;;;;;;4934394;29;20071;-67
2021/05/28 03:37:55;;;;;;;27.10;20.80;;;9.70;99.90;;;;;;4934459;29;19926;-67
2021/05/28 03:40:22;;;;;;;28.30;21.45;;;9.70;99.90;;;;;;4935186;29;20051;-67
2021/05/28 03:42:49;;;;;;;30.45;22.65;;;9.80;99.90;;;;;;4935577;29;20126;-67
2021/05/28 03:45:16;;;;;;;33.22;22.38;;;9.70;99.90;;;;;;4935480;29;20420;-68
2021/05/28 03:47:43;;;;;;;29.25;22.52;;;9.70;99.90;;;;;;4933696;29;20047;-67
2021/05/28 03:50:10;;;;;;;;;;;9.80;99.90;;;;;;4934105;29;20151;-67
2021/05/28 03:52:37;;;;;;;37.17;21.97;;;9.80;99.90;;;;;;4934804;29;20353;-68
2021/05/28 03:55:04;;;;;;;26.30;21.85;;;9.80;99.90;;;;;;4933711;29;20799;-68
2021/05/28 03:57:32;;;;;;;35.13;23.90;;;9.80;99.90;;;;;;4935089;29;20047;-68
2021/05/28 03:59:59;;;;;;;35.95;25.15;;;9.80;99.90;;;;;;4935453;29;20123;-67
2021/05/28 04:02:25;;;;;;;39.78;26.10;;;9.90;99.90;;;;;;4934776;29;20177;-68
2021/05/28 04:04:52;;;;;;;35.55;24.77;;;9.80;99.90;;;;;;4934382;29;20130;-68
2021/05/28 04:07:19;;;;;;;37.42;25.65;;;9.80;99.90;;;;;;4933223;29;20051;-68
2021/05/28 04:09:45;;;;;;;38.60;27.60;;;9.90;99.90;;;;;;4934487;29;20055;-68
2021/05/28 04:12:12;;;;;;;36.95;25.52;;;9.90;99.90;;;;;;4934686;29;20059;-68
2021/05/28 04:14:39;;;;;;;37.75;24.17;;;10.00;99.90;;;;;;4933755;29;20048;-67
2021/05/28 04:17:06;;;;;;;29.90;22.75;;;9.90;99.90;;;;;;4934437;29;20083;-67
2021/05/28 04:19:32;;;;;;;36.58;22.80;;;10.00;99.90;;;;;;4934581;29;20396;-68
2021/05/28 04:21:59;;;;;;;27.33;20.30;;;10.10;99.90;;;;;;4934397;29;20508;-67
2021/05/28 04:24:25;;;;;;;28.20;21.25;;;10.10;99.90;;;;;;4934077;29;20134;-68
2021/05/28 04:26:52;;;;;;;30.77;21.42;;;10.10;99.90;;;;;;4932704;29;20071;-67
2021/05/28 04:29:20;;;;;;;24.02;18.92;;;10.10;99.90;;;;;;4934404;29;20584;-68
2021/05/28 04:31:48;;;;;;;21.40;16.55;;;10.10;99.90;;;;;;4934061;29;20047;-68
2021/05/28 04:34:15;;;;;;;26.90;17.13;;;10.20;99.90;;;;;;4932896;29;20058;-68
2021/05/28 04:36:41;;;;;;;23.23;17.70;;;10.10;99.90;;;;;;4933111;29;20086;-67
2021/05/28 04:39:08;;;;;;;24.25;18.85;;;10.20;99.90;;;;;;4932859;29;20562;-68
2021/05/28 04:41:35;;;;;;;;;;;10.30;99.90;;;;;;4934163;29;20071;-68
2021/05/28 04:44:01;;;;;;;20.42;15.93;;;10.30;99.90;;;;;;4932915;29;20430;-68
2021/05/28 04:46:28;;;;;;;21.80;16.08;;;10.40;99.90;;;;;;4932557;29;20607;-68
2021/05/28 04:48:55;;;;;;;;;;;10.40;99.90;;;;;;4934596;29;20052;-68
2021/05/28 04:51:22;;;;;;;20.38;14.70;;;10.40;99.90;;;;;;4934245;29;19973;-68
2021/05/28 04:53:49;;;;;;;21.58;15.77;;;10.40;99.90;;;;;;4932257;29;20051;-64
2021/05/28 04:56:17;;;;;;;25.27;15.13;;;10.50;99.90;;;;;;4932561;29;20052;-67
2021/05/28 04:58:44;;;;;;;18.02;13.38;;;10.60;99.90;;;;;;4933832;29;20541;-67
2021/05/28 05:01:11;;;;;;;17.58;14.05;;;10.60;99.90;;;;;;4913406;29;20048;-67
2021/05/28 05:03:37;;;;;;;17.77;13.25;;;10.70;99.90;;;;;;4914419;29;20071;-67
2021/05/28 05:06:05;;;;;;;17.88;13.45;;;10.80;99.90;;;;;;4914281;29;20048;-67
2021/05/28 05:08:32;;;;;;;18.58;13.20;;;10.70;99.90;;;;;;4914921;29;20052;-68
2021/05/28 05:10:59;;;;;;;17.63;12.35;;;10.80;99.90;;;;;;4914346;29;20040;-67
2021/05/28 05:13:25;;;;;;;19.35;12.55;;;10.90;99.90;;;;;;4914060;29;20052;-68
2021/05/28 05:15:55;;;;;;;15.88;12.80;;;10.90;99.90;;;;;;4915285;29;20055;-67
2021/05/28 05:18:24;;;;;;;17.83;12.30;;;11.00;99.90;;;;;;4914011;29;20048;-68
2021/05/28 05:20:50;;;;;;;15.88;10.65;;;11.20;99.90;;;;;;4930057;29;20055;-68
2021/05/28 05:23:18;;;;;;;;;;;11.30;99.90;;;;;;4933627;29;20083;-67
2021/05/28 05:25:45;;;;;;;13.27;9.63;;;11.50;99.90;;;;;;4932405;29;19935;-67
2021/05/28 05:28:12;;;;;;;14.70;9.90;;;11.50;99.90;;;;;;4932580;29;20047;-67
2021/05/28 05:30:39;;;;;;;15.60;9.95;;;11.60;99.90;;;;;;4931659;29;20043;-67
2021/05/28 05:33:07;;;;;;;14.68;10.25;;;11.60;99.90;;;;;;4932593;29;20126;-67
2021/05/28 05:35:34;;;;;;;11.65;8.50;;;11.70;99.90;;;;;;4932581;29;20047;-67
2021/05/28 05:38:01;;;;;;;14.43;8.43;;;11.70;99.90;;;;;;4932722;29;20047;-67
2021/05/28 05:40:34;;;;;;;12.15;7.68;;;11.80;99.90;;;;;;4932143;29;20107;-66
2021/05/28 05:43:01;;;;;;;12.30;7.72;;;11.90;99.90;;;;;;4931561;29;20100;-67
2021/05/28 05:45:27;;;;;;;14.80;8.15;;;12.00;99.90;;;;;;4932859;29;20441;-68
2021/05/28 05:47:54;;;;;;;9.07;6.97;;;12.10;99.90;;;;;;4932797;29;20074;-67
2021/05/28 05:50:21;;;;;;;8.73;6.53;;;12.10;99.90;;;;;;4932560;29;20134;-67
2021/05/28 05:52:47;;;;;;;;;;;12.20;99.90;;;;;;4933671;29;20075;-68
2021/05/28 05:55:15;;;;;;;14.13;6.75;;;12.60;99.90;;;;;;4932970;29;19933;-65
2021/05/28 05:57:43;;;;;;;9.32;6.63;;;12.60;99.90;;;;;;4931713;29;20055;-68
2021/05/28 06:00:10;;;;;;;15.25;7.18;;;12.70;99.90;;;;;;4929858;29;20044;-68
2021/05/28 06:02:37;;;;;;;11.00;6.78;;;12.70;99.90;;;;;;4930156;29;20051;-67
2021/05/28 06:05:05;;;;;;;8.27;6.93;;;12.70;99.90;;;;;;4933870;29;20067;-67
2021/05/28 06:07:31;;;;;;;14.35;7.75;;;12.80;99.90;;;;;;4937814;29;20048;-66
2021/05/28 06:09:58;;;;;;;18.00;11.52;;;13.00;99.90;;;;;;4932121;29;20052;-66
2021/05/28 06:12:24;;;;;;;12.75;8.20;;;12.90;99.90;;;;;;4928823;29;20126;-65
2021/05/28 06:14:52;;;;;;;10.52;5.20;;;12.90;99.90;;;;;;4924014;29;20109;-66
2021/05/28 06:17:18;;;;;;;7.55;4.25;;;13.10;99.90;;;;;;4929962;29;20543;-66
2021/05/28 06:19:45;;;;;;;;;;;13.20;99.90;;;;;;4932884;29;20393;-67
2021/05/28 06:22:12;;;;;;;6.72;4.30;;;13.40;99.90;;;;;;4928940;29;19970;-67
2021/05/28 06:24:38;;;;;;;7.35;4.05;;;13.40;99.90;;;;;;4923124;29;20079;-66
2021/05/28 06:27:08;;;;;;;18.20;3.78;;;13.40;99.90;;;;;;4931554;29;20690;-67
2021/05/28 06:29:34;;;;;;;7.60;3.25;;;13.30;99.90;;;;;;4931104;29;20579;-66
2021/05/28 06:32:02;;;;;;;5.70;3.78;;;13.20;99.90;;;;;;4931957;29;20051;-66
2021/05/28 06:34:29;;;;;;;15.88;3.90;;;13.30;99.90;;;;;;4931130;29;20047;-66
2021/05/28 06:36:55;;;;;;;8.10;3.47;;;13.30;99.90;;;;;;4930281;29;20055;-67
2021/05/28 06:39:21;;;;;;;12.30;3.85;;;13.30;99.90;;;;;;4931570;29;20051;-67
2021/05/28 06:41:48;;;;;;;10.68;3.53;;;13.50;99.90;;;;;;4932753;29;20043;-66
2021/05/28 06:44:14;;;;;;;7.85;3.80;;;13.60;99.90;;;;;;4934903;29;20052;-67
2021/05/28 06:46:41;;;;;;;9.80;3.97;;;13.80;99.90;;;;;;4936020;29;20050;-66
2021/05/28 06:49:09;;;;;;;9.10;2.47;;;14.00;99.90;;;;;;4933784;29;20051;-66
2021/05/28 06:51:35;;;;;;;6.05;2.55;;;13.80;99.90;;;;;;4935748;29;20047;-66
2021/05/28 06:54:02;;;;;;;5.85;2.90;;;13.90;99.90;;;;;;4933428;29;20052;-67
2021/05/28 06:56:28;;;;;;;9.93;3.17;;;14.40;99.90;;;;;;4935610;29;20047;-67
2021/05/28 06:59:01;;;;;;;8.38;3.05;;;14.60;99.90;;;;;;4935175;29;20039;-68
2021/05/28 07:01:28;;;;;;;5.65;3.45;;;14.80;99.90;;;;;;4926743;29;20047;-67
2021/05/28 07:03:54;;;;;;;5.80;3.28;;;14.60;99.90;;;;;;4934079;29;20126;-67
2021/05/28 07:06:22;;;;;;;11.00;3.70;;;14.50;99.90;;;;;;4933595;29;20147;-66
2021/05/28 07:08:48;;;;;;;7.22;3.50;;;14.60;99.90;;;;;;4934634;29;20230;-67
2021/05/28 07:11:15;;;;;;;5.60;2.80;;;14.60;99.90;;;;;;4934212;29;20043;-67
2021/05/28 07:13:41;;;;;;;5.65;2.33;;;14.80;99.90;;;;;;4932759;29;20523;-67
2021/05/28 07:16:08;;;;;;;5.90;2.47;;;15.00;99.90;;;;;;4933839;29;20048;-65
2021/05/28 07:18:34;;;;;;;5.25;2.90;;;14.80;99.90;;;;;;4935174;29;20116;-66
2021/05/28 07:21:01;;;;;;;9.05;3.15;;;14.70;99.90;;;;;;4934288;29;20511;-66
2021/05/28 07:23:29;;;;;;;;;;;14.80;99.90;;;;;;4935846;29;20122;-67
2021/05/28 07:25:59;;;;;;;6.75;2.58;;;14.90;99.90;;;;;;4934240;29;19927;-67
2021/05/28 07:28:25;;;;;;;4.78;2.97;;;15.50;99.90;;;;;;4934759;29;20102;-68
2021/05/28 07:30:52;;;;;;;8.55;3.40;;;15.60;99.90;;;;;;4937656;29;20448;-67
2021/05/28 07:33:18;;;;;;;6.05;2.72;;;15.30;99.90;;;;;;4935184;29;20044;-66
2021/05/28 07:35:45;;;;;;;7.53;2.53;;;15.40;99.90;;;;;;4943548;29;20047;-67
2021/05/28 07:38:11;;;;;;;;;;;15.20;99.90;;;;;;4942651;29;20062;-67
2021/05/28 07:40:39;;;;;;;4.80;2.05;;;15.30;99.90;;;;;;4946537;29;19945;-67
2021/05/28 07:43:06;;;;;;;7.97;1.98;;;16.90;99.90;;;;;;4952367;29;20301;-66
2021/05/28 07:45:32;;;;;;;;;;;17.90;99.90;;;;;;4950129;29;20467;-66
2021/05/28 07:48:00;;;;;;;3.90;1.63;;;18.40;99.90;;;;;;4950440;29;19938;-69
2021/05/28 07:50:27;;;;;;;4.90;1.65;;;18.10;99.90;;;;;;4947633;29;20047;-66
2021/05/28 07:52:53;;;;;;;3.60;1.50;;;18.60;99.90;;;;;;4936301;29;20043;-67
2021/05/28 07:55:20;;;;;;;;;;;19.20;99.90;;;;;;4935296;29;20287;-67
2021/05/28 07:57:47;;;;;;;3.97;1.73;;;19.30;99.90;;;;;;4933713;29;20005;-68
2021/05/28 08:00:15;;;;;;;2.88;1.42;;;20.10;99.90;;;;;;4934723;29;20407;-67
2021/05/28 08:02:46;;;;;;;3.35;1.58;;;20.00;99.90;;;;;;4934691;29;20044;-68
2021/05/28 08:05:13;;;;;;;2.80;1.42;;;19.50;99.90;;;;;;4934816;29;20043;-68
2021/05/28 08:07:40;;;;;;;6.00;1.98;;;20.30;99.90;;;;;;4934810;29;20055;-68
2021/05/28 08:10:07;;;;;;;;;;;20.70;99.90;;;;;;4934946;29;20124;-68
2021/05/28 08:12:34;;;;;;;5.78;2.10;;;19.30;99.90;;;;;;4933060;29;19927;-68
2021/05/28 08:15:01;;;;;;;;;;;18.70;99.90;;;;;;4933174;29;20044;-68
2021/05/28 08:17:28;;;;;;;4.25;1.70;;;18.10;99.90;;;;;;4934059;29;20019;-68
2021/05/28 08:19:54;;;;;;;3.15;1.92;;;18.30;99.90;;;;;;4933894;29;20050;-69
2021/05/28 08:22:21;;;;;;;6.28;2.17;;;19.70;99.90;;;;;;4934485;29;20128;-68
2021/05/28 08:24:47;;;;;;;4.28;1.80;;;19.50;99.90;;;;;;4932341;29;20052;-69
2021/05/28 08:27:16;;;;;;;4.05;1.77;;;18.60;99.90;;;;;;4932318;29;20487;-68
2021/05/28 08:29:43;;;;;;;4.45;1.50;;;18.30;99.90;;;;;;4933576;29;20078;-68
2021/05/28 08:32:10;;;;;;;4.53;1.60;;;18.40;99.90;;;;;;4933600;29;20043;-68
2021/05/28 08:34:37;;;;;;;5.38;1.70;;;18.20;99.90;;;;;;4933764;29;20071;-68
2021/05/28 08:37:03;;;;;;;;;;;17.70;99.90;;;;;;4932837;29;20059;-68
2021/05/28 08:39:30;;;;;;;7.45;1.98;;;17.30;99.90;;;;;;4932273;29;19933;-68
2021/05/28 08:41:57;;;;;;;5.53;1.77;;;16.90;99.90;;;;;;4933813;29;20177;-68
2021/05/28 08:44:26;;;;;;;3.55;2.00;;;16.00;99.90;;;;;;4933616;29;20051;-68
2021/05/28 08:46:53;;;;;;;5.93;2.42;;;16.20;99.90;;;;;;4933481;29;20052;-68
2021/05/28 08:49:22;;;;;;;7.18;2.72;;;16.10;99.90;;;;;;4933264;29;20043;-68
2021/05/28 08:51:49;;;;;;;6.72;2.05;;;16.20;99.90;;;;;;4932621;29;20113;-68
2021/05/28 08:54:15;;;;;;;;;;;16.40;99.90;;;;;;4933695;29;20082;-68
2021/05/28 08:56:42;;;;;;;4.13;1.88;;;16.00;99.90;;;;;;4933440;29;19922;-68
2021/05/28 08:59:09;;;;;;;3.25;1.50;;;16.60;99.90;;;;;;4933578;29;20086;-68
2021/05/28 09:01:35;;;;;;;3.38;1.50;;;17.90;99.90;;;;;;4933504;29;20638;-68
2021/05/28 09:04:04;;;;;;;2.42;1.23;;;18.80;99.90;;;;;;4931976;29;20055;-69
2021/05/28 09:06:39;;;;;;;2.67;1.33;;;18.80;99.90;;;;;;4931477;29;20058;-69
2021/05/28 09:09:10;;;;;;;2.20;1.48;;;19.80;99.90;;;;;;4932424;29;20063;-69
2021/05/28 09:11:51;;;;;;;4.00;1.83;;;20.30;99.90;;;;;;4932315;29;20043;-69
2021/05/28 09:14:36;;;;;;;2.53;1.40;;;21.20;99.90;;;;;;4933824;29;20044;-68
2021/05/28 09:17:04;;;;;;;5.13;1.55;;;21.00;99.90;;;;;;4933406;29;20055;-67
2021/05/28 09:19:30;;;;;;;2.95;1.73;;;20.30;99.90;;;;;;4933366;29;20047;-68
2021/05/28 09:22:03;;;;;;;4.03;1.42;;;18.90;99.90;;;;;;4933330;29;20130;-68
2021/05/28 09:24:33;;;;;;;3.08;1.30;;;18.30;99.90;;;;;;4933627;29;20115;-68
2021/05/28 09:27:19;;;;;;;5.15;1.70;;;18.30;99.90;;;;;;4933223;29;20048;-68
2021/05/28 09:30:06;;;;;;;4.10;1.35;;;18.30;99.90;;;;;;4933426;29;20062;-67
2021/05/28 09:32:33;;;;;;;;;;;17.70;99.90;;;;;;4935645;29;20416;-68
2021/05/28 09:35:00;;;;;;;3.70;1.60;;;18.50;99.90;;;;;;4932299;29;20025;-68
2021/05/28 09:37:51;;;;;;;2.58;1.40;;;19.20;99.90;;;;;;4932646;29;20053;-69
2021/05/28 09:40:19;;;;;;;3.40;1.40;;;19.40;99.90;;;;;;4930167;29;20058;-68
2021/05/28 09:42:48;;;;;;;3.08;1.42;;;19.00;99.90;;;;;;4933258;29;20516;-68
2021/05/28 09:45:29;;;;;;;4.18;1.40;;;18.20;99.90;;;;;;4932590;29;20050;-67
2021/05/28 09:47:58;;;;;;;1.75;1.15;;;17.40;99.90;;;;;;4931507;29;20201;-68
2021/05/28 09:50:24;;;;;;;1.83;1.13;;;17.00;99.90;;;;;;4932562;29;20047;-68
2021/05/28 09:52:52;;;;;;;4.57;1.30;;;16.80;99.90;;;;;;4932647;29;20127;-68
2021/05/28 09:55:19;;;;;;;2.10;1.40;;;16.50;99.90;;;;;;4932772;29;20134;-67
2021/05/28 09:57:46;;;;;;;;;;;16.50;99.90;;;;;;4933019;29;20507;-68
2021/05/28 10:00:23;;;;;;;3.78;1.45;;;16.50;99.90;;;;;;4932552;29;19977;-67
2021/05/28 10:02:49;;;;;;;1.65;1.05;;;16.50;99.90;;;;;;4932548;29;20044;-67
2021/05/28 10:05:24;;;;;;;3.08;1.40;;;16.50;99.90;;;;;;4932740;29;20051;-68
2021/05/28 10:07:52;;;;;;;2.95;1.30;;;16.40;99.90;;;;;;4932644;29;20044;-67
2021/05/28 10:10:19;;;;;;;2.47;1.33;;;16.50;99.90;;;;;;4932401;29;20496;-67
2021/05/28 10:12:47;;;;;;;3.22;1.35;;;16.50;99.90;;;;;;4931313;29;20115;-68
2021/05/28 10:15:14;;;;;;;2.42;1.00;;;16.10;99.90;;;;;;4932477;29;20047;-68
2021/05/28 10:17:42;;;;;;;3.63;1.08;;;16.40;99.90;;;;;;4933118;29;20500;-68
2021/05/28 10:20:09;;;;;;;4.60;1.23;;;16.70;99.90;;;;;;4936246;29;20081;-68
2021/05/28 10:22:35;;;;;;;1.98;1.10;;;16.70;99.90;;;;;;4936684;29;20457;-68
2021/05/28 10:25:05;;;;;;;1.67;0.90;;;17.20;99.90;;;;;;4936125;29;20114;-69
2021/05/28 10:27:32;;;;;;;1.45;0.90;;;18.10;99.90;;;;;;4934946;29;20056;-69
2021/05/28 10:29:59;;;;;;;2.10;0.90;;;17.90;99.90;;;;;;4936372;29;20048;-69
2021/05/28 10:32:27;;;;;;;;;;;18.20;99.90;;;;;;4936825;29;20047;-68
2021/05/28 10:35:16;;;;;;;1.55;0.90;;;18.90;99.90;;;;;;4934881;29;19993;-68
2021/05/28 10:37:44;;;;;;;1.52;1.02;;;18.60;99.90;;;;;;4936351;29;20055;-69
2021/05/28 10:40:28;;;;;;;2.85;1.15;;;19.00;99.90;;;;;;4936030;29;20044;-69
2021/05/28 10:43:05;;;;;;;1.75;1.05;;;20.10;99.90;;;;;;4936272;29;20127;-69
2021/05/28 10:45:58;;;;;;;2.40;0.82;;;20.10;99.90;;;;;;4935785;29;20074;-69
2021/05/28 10:49:01;;;;;;;2.60;1.40;;;20.40;96.20;;;;;;4935722;29;20496;-69
2021/05/28 10:51:59;;;;;;;1.60;1.20;;;19.60;96.70;;;;;;4935649;29;20054;-69
2021/05/28 10:54:27;;;;;;;2.38;1.10;;;19.80;98.40;;;;;;4935700;29;20503;-69
2021/05/28 10:56:54;;;;;;;1.83;0.90;;;20.10;97.50;;;;;;4935593;29;20654;-68
2021/05/28 10:59:22;;;;;;;2.70;1.05;;;20.10;93.60;;;;;;4934622;29;20048;-68
2021/05/28 11:01:52;;;;;;;1.02;0.90;;;19.80;94.00;;;;;;4936032;29;20518;-68
2021/05/28 11:04:24;;;;;;;3.22;1.33;;;19.70;94.30;;;;;;4934245;29;20582;-68
2021/05/28 11:07:16;;;;;;;2.55;1.10;;;20.50;93.80;;;;;;4936185;29;20051;-68
2021/05/28 11:09:46;;;;;;;2.25;1.30;;;21.30;90.60;;;;;;4935651;29;20078;-68
2021/05/28 11:12:14;;;;;;;2.95;1.08;;;20.10;90.00;;;;;;4934408;29;20047;-68
2021/05/28 11:14:59;;;;;;;2.85;0.82;;;19.30;92.00;;;;;;4935350;29;20560;-68
2021/05/28 11:17:26;;;;;;;6.10;1.00;;;18.60;93.40;;;;;;4933143;29;20059;-68
2021/05/28 11:19:56;;;;;;;2.50;1.33;;;18.70;95.70;;;;;;4934464;29;20048;-68
2021/05/28 11:22:44;;;;;;;6.22;1.10;;;18.10;98.10;;;;;;4934822;29;20043;-68
2021/05/28 11:25:18;;;;;;;2.10;1.25;;;17.60;98.40;;;;;;4931603;29;20146;-68
2021/05/28 11:27:51;;;;;;;4.38;1.23;;;17.60;99.10;;;;;;4931871;29;20067;-67
2021/05/28 11:30:44;;;;;;;4.05;1.10;;;17.90;98.50;;;;;;4932821;29;20050;-67
2021/05/28 11:33:39;;;;;;;4.30;1.20;;;18.20;98.10;;;;;;4932591;29;20548;-69
2021/05/28 11:36:46;;;;;;;4.60;1.20;;;18.30;97.90;;;;;;4933553;29;20078;-69
2021/05/28 11:39:24;;;;;;;3.58;1.27;;;18.10;98.80;;;;;;4934103;29;20039;-69
2021/05/28 11:41:53;;;;;;;1.30;1.20;;;18.00;98.50;;;;;;4919551;29;20044;-68
2021/05/28 11:44:22;;;;;;;2.95;1.38;;;17.50;99.90;;;;;;4932402;29;20055;-70
2021/05/28 11:46:51;;;;;;;4.63;1.75;;;17.80;99.40;;;;;;4934653;29;20048;-70
2021/05/28 11:49:20;;;;;;;1.50;1.30;;;17.60;98.20;;;;;;4927777;29;20054;-69
2021/05/28 11:51:56;;;;;;;2.25;1.30;;;17.40;99.20;;;;;;4933992;29;20078;-69
2021/05/28 11:54:25;;;;;;;2.35;1.30;;;17.50;99.50;;;;;;4934974;29;20043;-68
2021/05/28 11:56:56;;;;;;;2.67;1.50;;;18.00;98.30;;;;;;4934406;29;20337;-70
2021/05/28 11:59:49;;;;;;;4.35;1.25;;;18.50;97.60;;;;;;4931557;29;20061;-71
2021/05/28 12:02:44;;;;;;;4.28;1.88;;;19.40;95.60;;;;;;4924415;29;20040;-71
2021/05/28 12:05:23;;;;;;;3.13;1.20;;;19.90;94.60;;;;;;4915360;29;20052;-71
2021/05/28 12:07:50;;;;;;;4.18;1.55;;;20.30;93.30;;;;;;4926185;29;20044;-70
2021/05/28 12:10:17;;;;;;;2.30;1.33;;;20.20;93.40;;;;;;4931065;29;20050;-70
2021/05/28 12:13:01;;;;;;;4.65;1.65;;;19.90;93.50;;;;;;4922821;29;20043;-68
2021/05/28 12:15:32;;;;;;;6.35;2.08;;;19.60;94.70;;;;;;4926160;29;20139;-68
2021/05/28 12:18:01;;;;;;;1.67;1.25;;;19.50;94.80;;;;;;4925661;29;20048;-69
2021/05/28 12:20:30;;;;;;;1.52;1.42;;;19.10;94.30;;;;;;4931376;29;20044;-69
2021/05/28 12:23:03;;;;;;;1.90;1.50;;;18.80;95.00;;;;;;4948211;29;20047;-69
2021/05/28 12:25:31;;;;;;;4.68;1.77;;;18.30;96.10;;;;;;4936072;29;20050;-66
2021/05/28 12:28:11;;;;;;;4.40;1.70;;;17.90;97.40;;;;;;4937419;29;20098;-69
2021/05/28 12:30:40;;;;;;;3.50;1.50;;;18.20;97.00;;;;;;4932295;29;20495;-68
2021/05/28 12:33:08;;;;;;;2.92;1.67;;;18.20;95.70;;;;;;4936991;29;20090;-69
2021/05/28 12:35:35;;;;;;;4.70;1.58;;;18.40;96.10;;;;;;4932625;29;20047;-69
2021/05/28 12:38:07;;;;;;;3.85;1.42;;;18.20;98.40;;;;;;4933095;29;20143;-69
2021/05/28 12:40:35;;;;;;;2.67;1.63;;;17.90;98.10;;;;;;4931423;29;20043;-70
2021/05/28 12:43:05;;;;;;;2.38;1.40;;;17.70;98.50;;;;;;4932684;29;20047;-70
2021/05/28 12:45:33;;;;;;;7.40;1.67;;;18.20;98.10;;;;;;4929030;29;20047;-70
2021/05/28 12:48:00;;;;;;;3.85;1.45;;;18.30;98.00;;;;;;4931863;29;20044;-71
2021/05/28 12:50:32;;;;;;;3.55;1.63;;;19.50;97.60;;;;;;4931349;29;20039;-69
2021/05/28 12:53:00;;;;;;;3.28;1.48;;;19.80;96.50;;;;;;4933013;29;20067;-70
2021/05/28 12:55:32;;;;;;;3.05;1.30;;;19.90;93.90;;;;;;4935909;29;20075;-70
2021/05/28 12:57:59;;;;;;;4.45;1.42;;;20.30;93.40;;;;;;4935398;29;20435;-71